Time;durP1;ratioP1;P1;durP2;ratioP2;P2;SDS_P1;SDS_P2;PMS_P1;PMS_P2;Temp;Humidity;BMP_temperature;BMP_pressure;BME280_temperature;BME280_humidity;BME280_pressure;Samples;Min_cycle;Max_cycle;Signal;HPM_P1;HPM_P2
2021/11/25 00:01:08;;;;;;;23.35;11.57;;;;;;;;;;5021452;28;20096;-68
2021/11/25 00:03:35;;;;;;;26.92;11.05;;;;;;;;;;5023746;28;20443;-68
2021/11/25 00:06:02;;;;;;;17.55;10.10;;;;;;;;;;5023204;28;20479;-68
2021/11/25 00:08:28;;;;;;;22.30;10.95;;;;;;;;;;5020687;28;20077;-68
2021/11/25 00:10:56;;;;;;;22.92;10.57;;;;;;;;;;5023313;28;20569;-68
2021/11/25 00:13:23;;;;;;;24.58;11.07;;;;;;;;;;5023713;28;20081;-68
2021/11/25 00:15:50;;;;;;;26.13;12.48;;;;;;;;;;5024857;28;20045;-68
2021/11/25 00:18:18;;;;;;;24.02;12.70;;;;;;;;;;5024616;28;20085;-68
2021/11/25 00:20:45;;;;;;;25.83;10.93;;;;;;;;;;5026857;28;20423;-68
2021/11/25 00:23:12;;;;;;;21.73;10.48;;;;;;;;;;5026062;28;21601;-68
2021/11/25 00:25:38;;;;;;;21.10;10.98;;;;;;;;;;5028835;28;20073;-68
2021/11/25 00:28:06;;;;;;;27.70;12.38;;;;;;;;;;5027257;28;20124;-68
2021/11/25 00:30:33;;;;;;;22.95;11.05;;;;;;;;;;5026194;28;20495;-68
2021/11/25 00:33:00;;;;;;;24.08;11.23;;;;;;;;;;5025636;28;20089;-68
2021/11/25 00:35:26;;;;;;;25.75;10.98;;;;;;;;;;5028164;28;20045;-68
2021/11/25 00:37:53;;;;;;;25.15;11.25;;;;;;;;;;5028922;28;20099;-68
2021/11/25 00:40:20;;;;;;;26.55;11.63;;;;;;;;;;5026143;28;20045;-68
2021/11/25 00:42:47;;;;;;;25.58;12.15;;;;;;;;;;5027694;28;20132;-68
2021/11/25 00:45:16;;;;;;;25.27;12.00;;;;;;;;;;5028494;28;20100;-68
2021/11/25 00:47:43;;;;;;;26.08;12.15;;;;;;;;;;5027278;28;20072;-68
2021/11/25 00:50:12;;;;;;;25.23;12.88;;;;;;;;;;5026033;28;20132;-68
2021/11/25 00:52:39;;;;;;;25.63;10.52;;;;;;;;;;5027049;28;20137;-68
2021/11/25 00:55:07;;;;;;;21.95;11.20;;;;;;;;;;5027697;28;20081;-68
2021/11/25 00:57:33;;;;;;;21.73;10.45;;;;;;;;;;5028691;28;20511;-68
2021/11/25 01:00:00;;;;;;;25.40;10.88;;;;;;;;;;5022855;28;20076;-68
2021/11/25 01:02:28;;;;;;;25.45;11.05;;;;;;;;;;5026405;28;20560;-68
2021/11/25 01:04:54;;;;;;;26.05;11.68;;;;;;;;;;5027742;28;20053;-68
2021/11/25 01:07:21;;;;;;;26.70;11.05;;;;;;;;;;5025872;28;20095;-68
2021/11/25 01:09:48;;;;;;;27.92;12.20;;;;;;;;;;5024845;28;20053;-68
2021/11/25 01:12:15;;;;;;;24.92;11.75;;;;;;;;;;5027397;28;20734;-68
2021/11/25 01:14:42;;;;;;;25.35;11.02;;;;;;;;;;5027011;28;20049;-68
2021/11/25 01:17:09;;;;;;;25.80;11.77;;;;;;;;;;5026522;28;20077;-68
2021/11/25 01:19:37;;;;;;;25.52;12.00;;;;;;;;;;5024099;28;20215;-68
2021/11/25 01:22:05;;;;;;;28.88;12.63;;;;;;;;;;5026696;28;20089;-68
2021/11/25 01:24:32;;;;;;;31.00;12.63;;;;;;;;;;5026178;28;20802;-68
2021/11/25 01:26:58;;;;;;;31.00;13.23;;;;;;;;;;5027082;28;20069;-68
2021/11/25 01:29:25;;;;;;;25.55;11.93;;;;;;;;;;5025411;28;20080;-68
2021/11/25 01:31:52;;;;;;;24.33;12.35;;;;;;;;;;5025773;28;20050;-68
2021/11/25 01:34:18;;;;;;;25.58;12.85;;;;;;;;;;5027256;28;20479;-68
2021/11/25 01:36:46;;;;;;;26.40;12.30;;;;;;;;;;5026963;28;20049;-68
2021/11/25 01:39:13;;;;;;;25.95;12.45;;;;;;;;;;5023087;28;20115;-68
2021/11/25 01:41:39;;;;;;;22.05;11.95;;;;;;;;;;5026835;28;20115;-68
2021/11/25 01:44:07;;;;;;;24.45;11.73;;;;;;;;;;5025658;28;20099;-68
2021/11/25 01:46:33;;;;;;;24.70;11.13;;;;;;;;;;5026119;28;20068;-68
2021/11/25 01:49:00;;;;;;;32.70;12.70;;;;;;;;;;5023975;28;20492;-68
2021/11/25 01:51:26;;;;;;;26.45;12.23;;;;;;;;;;5025211;28;20135;-68
2021/11/25 01:53:56;;;;;;;31.52;13.10;;;;;;;;;;5026178;28;20157;-68
2021/11/25 01:56:23;;;;;;;28.38;13.10;;;;;;;;;;5026448;28;20456;-68
2021/11/25 01:58:50;;;;;;;29.63;13.10;;;;;;;;;;5025227;28;20049;-68
2021/11/25 02:01:19;;;;;;;26.25;12.43;;;;;;;;;;5021984;28;20049;-68
2021/11/25 02:03:46;;;;;;;25.30;12.35;;;;;;;;;;5026960;28;20057;-68
2021/11/25 02:06:14;;;;;;;29.00;13.90;;;;;;;;;;5026847;28;20149;-68
2021/11/25 02:08:41;;;;;;;27.52;10.93;;;;;;;;;;5022176;28;20050;-67
2021/11/25 02:11:10;;;;;;;25.55;13.10;;;;;;;;;;5024304;28;20085;-67
2021/11/25 02:13:37;;;;;;;25.33;12.13;;;;;;;;;;5026296;28;20042;-68
2021/11/25 02:16:04;;;;;;;27.98;12.00;;;;;;;;;;5026114;28;20049;-68
2021/11/25 02:18:31;;;;;;;22.92;11.10;;;;;;;;;;5024143;28;20488;-68
2021/11/25 02:21:01;;;;;;;27.67;12.20;;;;;;;;;;5024423;28;20471;-68
2021/11/25 02:23:28;;;;;;;27.50;12.40;;;;;;;;;;5025205;28;20080;-68
2021/11/25 02:25:56;;;;;;;26.05;11.40;;;;;;;;;;5026077;28;20050;-68
2021/11/25 02:28:27;;;;;;;30.27;13.18;;;;;;;;;;5025346;28;20723;-68
2021/11/25 02:30:54;;;;;;;28.33;11.55;;;;;;;;;;5024682;28;20736;-68
2021/11/25 02:33:21;;;;;;;26.25;11.07;;;;;;;;;;5026842;28;20111;-68
2021/11/25 02:35:48;;;;;;;22.10;11.25;;;;;;;;;;5025032;28;20109;-68
2021/11/25 02:38:16;;;;;;;21.98;10.90;;;;;;;;;;5023698;28;20140;-68
2021/11/25 02:40:44;;;;;;;25.92;11.05;;;;;;;;;;5023238;28;20587;-68
2021/11/25 02:43:14;;;;;;;23.88;11.07;;;;;;;;;;5024561;28;20144;-68
2021/11/25 02:45:49;;;;;;;24.50;11.35;;;;;;;;;;5024960;28;20473;-68
2021/11/25 02:48:17;;;;;;;27.33;11.45;;;;;;;;;;5023799;28;20089;-68
2021/11/25 02:50:44;;;;;;;24.98;12.23;;;;;;;;;;5023443;28;20100;-68
2021/11/25 02:53:11;;;;;;;25.25;12.10;;;;;;;;;;5024598;28;20084;-68
2021/11/25 02:55:39;;;;;;;24.25;10.90;;;;;;;;;;5025663;28;20120;-68
2021/11/25 02:58:06;;;;;;;25.13;12.30;;;;;;;;;;5022952;28;20053;-68
2021/11/25 03:00:40;;;;;;;28.23;13.68;;;;;;;;;;5022887;28;20088;-68
2021/11/25 03:03:10;;;;;;;25.08;11.70;;;;;;;;;;5026072;28;20507;-68
2021/11/25 03:05:39;;;;;;;29.70;14.13;;;;;;;;;;5026314;28;20130;-68
2021/11/25 03:08:08;;;;;;;27.33;12.68;;;;;;;;;;5023398;28;20049;-68
2021/11/25 03:10:36;;;;;;;22.98;10.98;;;;;;;;;;5021609;28;20578;-68
2021/11/25 03:13:04;;;;;;;29.17;12.35;;;;;;;;;;5024868;28;20077;-68
2021/11/25 03:15:31;;;;;;;26.13;11.45;;;;;;;;;;5024903;28;20184;-68
2021/11/25 03:17:58;;;;;;;28.23;12.80;;;;;;;;;;5025262;28;20124;-68
2021/11/25 03:20:24;;;;;;;25.88;12.63;;;;;;;;;;5022796;28;20099;-68
2021/11/25 03:22:51;;;;;;;30.13;12.10;;;;;;;;;;5024473;28;20077;-68
2021/11/25 03:25:18;;;;;;;27.52;12.38;;;;;;;;;;5023905;28;20541;-68
2021/11/25 03:27:44;;;;;;;27.27;11.65;;;;;;;;;;5025670;28;20500;-68
2021/11/25 03:30:12;;;;;;;29.20;12.27;;;;;;;;;;5022366;28;20084;-68
2021/11/25 03:32:39;;;;;;;31.08;13.27;;;;;;;;;;5025049;28;20072;-68
2021/11/25 03:35:07;;;;;;;29.67;12.55;;;;;;;;;;5023752;28;20080;-68
2021/11/25 03:37:34;;;;;;;28.48;11.73;;;;;;;;;;5024140;28;21816;-68
2021/11/25 03:40:00;;;;;;;25.55;12.63;;;;;;;;;;5020897;28;20136;-69
2021/11/25 03:42:27;;;;;;;24.00;12.38;;;;;;;;;;5025825;28;20518;-68
2021/11/25 03:44:54;;;;;;;23.40;11.75;;;;;;;;;;5024710;28;20049;-68
2021/11/25 03:47:21;;;;;;;25.52;11.80;;;;;;;;;;5023764;28;20420;-68
2021/11/25 03:49:48;;;;;;;23.23;11.98;;;;;;;;;;5021329;28;20144;-68
2021/11/25 03:52:15;;;;;;;26.08;11.07;;;;;;;;;;5025124;28;20057;-68
2021/11/25 03:54:41;;;;;;;24.83;11.40;;;;;;;;;;5028041;28;20164;-68
2021/11/25 03:57:08;;;;;;;24.88;11.40;;;;;;;;;;5029034;28;20049;-68
2021/11/25 03:59:35;;;;;;;26.77;11.50;;;;;;;;;;5024226;28;20815;-68
2021/11/25 04:02:01;;;;;;;22.73;11.75;;;;;;;;;;5028971;28;20560;-68
2021/11/25 04:04:29;;;;;;;22.80;10.25;;;;;;;;;;5028489;28;20451;-68
2021/11/25 04:06:56;;;;;;;18.98;9.57;;;;;;;;;;5028976;28;20069;-68
2021/11/25 04:09:22;;;;;;;23.63;10.40;;;;;;;;;;5025250;28;20076;-68
2021/11/25 04:11:49;;;;;;;24.02;11.50;;;;;;;;;;5026627;28;20057;-68
2021/11/25 04:14:15;;;;;;;19.98;10.40;;;;;;;;;;5028307;28;20085;-68
2021/11/25 04:16:42;;;;;;;22.40;10.38;;;;;;;;;;5024859;28;20131;-68
2021/11/25 04:19:08;;;;;;;21.67;10.95;;;;;;;;;;5027779;28;20053;-68
2021/11/25 04:21:36;;;;;;;23.88;11.13;;;;;;;;;;5027544;28;20142;-68
2021/11/25 04:24:03;;;;;;;17.00;9.60;;;;;;;;;;5027992;28;20092;-68
2021/11/25 04:26:30;;;;;;;19.15;10.30;;;;;;;;;;5027438;28;20053;-68
2021/11/25 04:28:57;;;;;;;19.42;9.38;;;;;;;;;;5025522;28;20057;-68
2021/11/25 04:37:05;;;;;;;18.83;8.80;;;;;;;;;;5028309;28;20608;-68
2021/11/25 04:39:31;;;;;;;19.05;9.55;;;;;;;;;;5024106;28;20135;-68
2021/11/25 04:41:58;;;;;;;19.02;10.13;;;;;;;;;;5026859;28;20073;-68
2021/11/25 04:44:24;;;;;;;17.13;9.20;;;;;;;;;;5027924;28;20503;-68
2021/11/25 04:46:51;;;;;;;21.77;10.57;;;;;;;;;;5026327;28;20076;-68
2021/11/25 04:49:17;;;;;;;18.23;9.20;;;;;;;;;;5026107;28;20089;-68
2021/11/25 04:51:44;;;;;;;20.90;9.25;;;;;;;;;;5027823;28;20076;-68
2021/11/25 04:54:12;;;;;;;16.48;8.90;;;;;;;;;;5027295;28;20045;-68
2021/11/25 04:56:38;;;;;;;18.50;9.50;;;;;;;;;;5027436;28;20499;-68
2021/11/25 04:59:05;;;;;;;16.75;8.80;;;;;;;;;;5025891;28;20073;-68
2021/11/25 05:01:32;;;;;;;18.70;9.20;;;;;;;;;;5024833;28;20503;-68
2021/11/25 05:03:58;;;;;;;17.40;8.90;;;;;;;;;;5028917;28;20132;-68
2021/11/25 05:06:25;;;;;;;19.52;9.00;;;;;;;;;;5028249;28;20072;-68
2021/11/25 05:08:51;;;;;;;18.38;8.82;;;;;;;;;;5026140;28;20139;-68
2021/11/25 05:11:19;;;;;;;26.00;10.85;;;;;;;;;;5023957;28;20148;-68
2021/11/25 05:13:46;;;;;;;17.92;9.32;;;;;;;;;;5027212;28;20514;-68
2021/11/25 05:16:12;;;;;;;20.40;9.95;;;;;;;;;;5026084;28;20053;-68
2021/11/25 05:18:39;;;;;;;19.70;10.20;;;;;;;;;;5024402;28;20111;-68
2021/11/25 05:21:05;;;;;;;21.27;10.52;;;;;;;;;;5026448;28;20045;-68
2021/11/25 05:23:32;;;;;;;21.50;10.40;;;;;;;;;;5027765;28;20042;-68
2021/11/25 05:25:59;;;;;;;21.23;10.65;;;;;;;;;;5029214;28;20046;-68
2021/11/25 05:28:27;;;;;;;22.33;10.55;;;;;;;;;;5025206;28;20077;-68
2021/11/25 05:30:53;;;;;;;20.13;10.07;;;;;;;;;;5025471;28;20073;-68
2021/11/25 05:33:20;;;;;;;20.40;9.38;;;;;;;;;;5026926;28;20068;-68
2021/11/25 05:35:46;;;;;;;24.52;10.95;;;;;;;;;;5027730;28;20053;-68
2021/11/25 05:38:14;;;;;;;22.30;11.43;;;;;;;;;;5026293;28;20085;-68
2021/11/25 05:40:41;;;;;;;18.35;9.68;;;;;;;;;;5026120;28;20136;-68
2021/11/25 05:43:07;;;;;;;20.23;9.52;;;;;;;;;;5026844;28;20092;-68
2021/11/25 05:45:35;;;;;;;22.80;10.32;;;;;;;;;;5027441;28;20073;-68
2021/11/25 05:48:02;;;;;;;20.92;9.75;;;;;;;;;;5024891;28;20076;-68
2021/11/25 05:50:29;;;;;;;23.13;10.18;;;;;;;;;;5024541;28;20073;-68
2021/11/25 05:52:57;;;;;;;20.55;10.05;;;;;;;;;;5027010;28;20061;-68
2021/11/25 05:55:26;;;;;;;21.60;10.63;;;;;;;;;;5027252;28;20092;-68
2021/11/25 05:57:53;;;;;;;18.75;9.73;;;;;;;;;;5025721;28;20408;-68
2021/11/25 06:00:20;;;;;;;21.77;9.27;;;;;;;;;;5022526;28;20083;-68
2021/11/25 06:02:49;;;;;;;22.30;10.02;;;;;;;;;;5024623;28;20092;-68
2021/11/25 06:05:19;;;;;;;22.13;10.40;;;;;;;;;;5026082;28;20057;-68
2021/11/25 06:07:46;;;;;;;24.77;10.55;;;;;;;;;;5026491;28;20053;-68
2021/11/25 06:10:15;;;;;;;21.65;11.30;;;;;;;;;;5022280;28;20045;-68
2021/11/25 06:12:41;;;;;;;20.48;10.52;;;;;;;;;;5023627;28;20057;-68
2021/11/25 06:15:09;;;;;;;24.30;10.38;;;;;;;;;;5024067;28;20139;-68
2021/11/25 06:17:35;;;;;;;20.70;10.63;;;;;;;;;;5024829;28;20159;-68
2021/11/25 06:20:10;;;;;;;17.60;9.80;;;;;;;;;;5022021;28;20073;-68
2021/11/25 06:22:37;;;;;;;20.08;10.80;;;;;;;;;;5026004;28;20527;-68
2021/11/25 06:25:04;;;;;;;22.08;10.80;;;;;;;;;;5025714;28;20566;-68
2021/11/25 06:27:31;;;;;;;22.85;10.32;;;;;;;;;;5025548;28;20085;-68
2021/11/25 06:29:57;;;;;;;21.23;11.00;;;;;;;;;;5021974;28;20083;-68
2021/11/25 06:32:24;;;;;;;20.73;10.20;;;;;;;;;;5025658;28;20145;-68
2021/11/25 06:34:50;;;;;;;22.90;12.52;;;;;;;;;;5025693;28;20085;-68
2021/11/25 06:37:18;;;;;;;21.08;11.50;;;;;;;;;;5024962;28;20519;-68
2021/11/25 06:39:45;;;;;;;25.55;11.52;;;;;;;;;;5022298;28;20146;-68
2021/11/25 06:42:11;;;;;;;24.75;11.40;;;;;;;;;;5026176;28;20140;-68
2021/11/25 06:44:38;;;;;;;21.30;9.57;;;;;;;;;;5023770;28;20057;-68
2021/11/25 06:47:04;;;;;;;25.27;13.65;;;;;;;;;;5024341;28;20119;-68
2021/11/25 06:49:31;;;;;;;22.48;10.55;;;;;;;;;;5020792;28;20057;-68
2021/11/25 06:51:58;;;;;;;25.58;12.90;;;;;;;;;;5024270;28;20664;-68
2021/11/25 06:54:25;;;;;;;19.92;10.55;;;;;;;;;;5024087;28;20069;-68
2021/11/25 06:56:52;;;;;;;24.75;10.75;;;;;;;;;;5023479;28;20130;-68
2021/11/25 06:59:19;;;;;;;19.85;9.82;;;;;;;;;;5022721;28;20099;-68
2021/11/25 07:01:45;;;;;;;22.42;9.63;;;;;;;;;;5021878;28;20492;-68
2021/11/25 07:04:13;;;;;;;26.13;9.90;;;;;;;;;;5026124;28;20061;-68
2021/11/25 07:06:39;;;;;;;17.23;9.90;;;;;;;;;;5025518;28;20068;-68
2021/11/25 07:09:06;;;;;;;22.77;10.80;;;;;;;;;;5024063;28;20103;-68
2021/11/25 07:11:34;;;;;;;18.73;9.80;;;;;;;;;;5024435;28;20049;-68
2021/11/25 07:14:00;;;;;;;20.83;9.98;;;;;;;;;;5025054;28;20138;-68
2021/11/25 07:16:27;;;;;;;24.02;10.63;;;;;;;;;;5025709;28;20603;-68
2021/11/25 07:18:53;;;;;;;18.27;9.70;;;;;;;;;;5021354;28;20168;-68
2021/11/25 07:21:20;;;;;;;19.60;8.95;;;;;;;;;;5022998;28;20510;-68
2021/11/25 07:23:47;;;;;;;17.88;8.88;;;;;;;;;;5024683;28;20077;-68
2021/11/25 07:26:13;;;;;;;17.55;9.40;;;;;;;;;;5026238;28;20172;-68
2021/11/25 07:28:41;;;;;;;23.10;9.65;;;;;;;;;;5022339;28;20069;-68
2021/11/25 07:31:09;;;;;;;18.90;10.27;;;;;;;;;;5024012;28;20049;-68
2021/11/25 07:33:36;;;;;;;17.75;9.05;;;;;;;;;;5024941;28;21303;-69
2021/11/25 07:36:03;;;;;;;25.35;10.20;;;;;;;;;;5025579;28;20084;-69
2021/11/25 07:38:30;;;;;;;27.30;11.10;;;;;;;;;;5023890;28;20049;-69
2021/11/25 07:40:57;;;;;;;19.35;9.30;;;;;;;;;;5023282;28;20041;-69
2021/11/25 07:43:24;;;;;;;20.65;8.77;;;;;;;;;;5026097;28;20050;-69
2021/11/25 07:45:51;;;;;;;19.10;9.38;;;;;;;;;;5026322;28;20049;-69
2021/11/25 07:48:18;;;;;;;17.92;9.25;;;;;;;;;;5023326;28;20124;-69
2021/11/25 07:50:45;;;;;;;17.10;8.93;;;;;;;;;;5023997;28;20084;-69
2021/11/25 07:53:11;;;;;;;19.65;10.15;;;;;;;;;;5025506;28;20131;-69
2021/11/25 07:55:38;;;;;;;20.83;9.80;;;;;;;;;;5025141;28;20084;-69
2021/11/25 07:58:05;;;;;;;18.23;8.82;;;;;;;;;;5024228;28;20521;-69
2021/11/25 08:00:32;;;;;;;19.00;9.73;;;;;;;;;;5023258;28;20057;-69
2021/11/25 08:03:00;;;;;;;17.15;8.27;;;;;;;;;;5023546;28;20460;-69
2021/11/25 08:05:27;;;;;;;17.77;8.77;;;;;;;;;;5026050;28;20077;-69
2021/11/25 08:07:55;;;;;;;16.35;9.20;;;;;;;;;;5025175;28;20068;-69
2021/11/25 08:10:23;;;;;;;16.27;8.88;;;;;;;;;;5021190;28;20535;-69
2021/11/25 08:12:50;;;;;;;17.25;8.70;;;;;;;;;;5024596;28;20569;-69
2021/11/25 08:15:17;;;;;;;18.70;9.63;;;;;;;;;;5024043;28;20415;-69
2021/11/25 08:17:43;;;;;;;18.13;8.73;;;;;;;;;;5023510;28;20073;-69
2021/11/25 08:20:12;;;;;;;20.90;9.68;;;;;;;;;;5021085;28;20053;-68
2021/11/25 08:22:39;;;;;;;16.30;9.18;;;;;;;;;;5024343;28;20080;-69
2021/11/25 08:25:08;;;;;;;18.40;8.75;;;;;;;;;;5025279;28;20045;-69
2021/11/25 08:27:35;;;;;;;21.02;9.75;;;;;;;;;;5025262;28;20522;-69
2021/11/25 08:30:01;;;;;;;17.35;9.00;;;;;;;;;;5023079;28;20080;-69
2021/11/25 08:32:28;;;;;;;19.60;9.18;;;;;;;;;;5024097;28;20077;-69
2021/11/25 08:34:55;;;;;;;20.33;9.65;;;;;;;;;;5024761;28;20499;-69
2021/11/25 08:37:23;;;;;;;21.90;9.20;;;;;;;;;;5025275;28;20085;-69
2021/11/25 08:39:49;;;;;;;18.48;9.63;;;;;;;;;;5027547;28;20089;-69
2021/11/25 08:42:16;;;;;;;19.60;9.93;;;;;;;;;;5029388;28;20060;-69
2021/11/25 08:44:43;;;;;;;17.17;8.80;;;;;;;;;;5027544;28;20136;-69
2021/11/25 08:47:10;;;;;;;19.38;9.95;;;;;;;;;;5029376;28;20053;-68
2021/11/25 08:49:36;;;;;;;23.70;11.13;;;;;;;;;;5026567;28;20126;-68
2021/11/25 08:52:03;;;;;;;21.65;11.32;;;;;;;;;;5027750;28;20049;-68
2021/11/25 08:54:32;;;;;;;23.17;10.80;;;;;;;;;;5027536;28;20132;-67
2021/11/25 08:56:58;;;;;;;19.98;9.50;;;;;;;;;;5028160;28;20724;-68
2021/11/25 08:59:25;;;;;;;24.85;9.25;;;;;;;;;;5026711;28;20077;-67
2021/11/25 09:01:52;;;;;;;22.17;11.02;;;;;;;;;;5028247;28;20080;-67
2021/11/25 09:04:18;;;;;;;21.65;9.70;;;;;;;;;;5027349;28;20112;-67
2021/11/25 09:06:45;;;;;;;22.90;11.07;;;;;;;;;;5029284;28;20073;-68
2021/11/25 09:09:11;;;;;;;23.92;10.50;;;;;;;;;;5025511;28;20547;-68
2021/11/25 09:11:40;;;;;;;25.73;10.38;;;;;;;;;;5024611;28;20057;-67
2021/11/25 09:14:06;;;;;;;24.52;10.40;;;;;;;;;;5028255;28;20583;-67
2021/11/25 09:16:33;;;;;;;18.95;10.02;;;;;;;;;;5025619;28;20083;-68
2021/11/25 09:19:00;;;;;;;23.95;10.50;;;;;;;;;;5027125;28;20041;-67
2021/11/25 09:21:29;;;;;;;20.88;10.38;;;;;;;;;;5027080;28;20053;-67
2021/11/25 09:23:56;;;;;;;20.77;9.77;;;;;;;;;;5027312;28;20511;-68
2021/11/25 09:26:23;;;;;;;26.48;12.80;;;;;;;;;;5028333;28;20107;-67
2021/11/25 09:28:57;;;;;;;21.48;10.13;;;;;;;;;;5026767;28;20087;-67
2021/11/25 09:31:24;;;;;;;20.17;11.15;;;;;;;;;;5026568;28;20053;-68
2021/11/25 09:33:50;;;;;;;20.30;10.75;;;;;;;;;;5027790;28;20154;-68
2021/11/25 09:36:17;;;;;;;21.98;11.18;;;;;;;;;;5027466;28;20136;-68
2021/11/25 09:38:44;;;;;;;19.10;10.30;;;;;;;;;;5026195;28;20517;-68
2021/11/25 09:41:11;;;;;;;21.05;10.43;;;;;;;;;;5027215;28;20137;-68
2021/11/25 09:43:37;;;;;;;18.73;9.32;;;;;;;;;;5025893;28;20045;-68
2021/11/25 09:46:06;;;;;;;22.20;9.88;;;;;;;;;;5026285;28;20049;-68
2021/11/25 09:48:33;;;;;;;21.38;9.80;;;;;;;;;;5027666;28;20123;-68
2021/11/25 09:50:59;;;;;;;19.25;9.25;;;;;;;;;;5024724;28;20050;-68
2021/11/25 09:53:28;;;;;;;17.73;9.50;;;;;;;;;;5024858;28;20065;-68
2021/11/25 09:55:56;;;;;;;19.83;9.85;;;;;;;;;;5027498;28;20057;-67
2021/11/25 09:58:27;;;;;;;18.25;9.68;;;;;;;;;;5026439;28;20042;-68
2021/11/25 10:00:56;;;;;;;20.77;10.60;;;;;;;;;;5026276;28;20080;-67
2021/11/25 10:03:25;;;;;;;19.25;10.68;;;;;;;;;;5025912;28;20074;-68
2021/11/25 10:05:54;;;;;;;23.63;11.73;;;;;;;;;;5025053;28;20565;-68
2021/11/25 10:08:31;;;;;;;24.13;11.52;;;;;;;;;;5025654;28;20076;-68
2021/11/25 10:11:05;;;;;;;21.77;10.45;;;;;;;;;;5026714;28;20564;-68
2021/11/25 10:13:37;;;;;;;20.42;9.55;;;;;;;;;;5027621;28;20140;-67
2021/11/25 10:16:06;;;;;;;22.27;10.45;;;;;;;;;;5024906;28;20076;-67
2021/11/25 10:18:36;;;;;;;21.02;10.73;;;;;;;;;;5025913;28;20124;-67
2021/11/25 10:21:05;;;;;;;22.55;11.77;;;;;;;;;;5025641;28;20054;-67
2021/11/25 10:23:31;;;;;;;22.38;12.15;;;;;;;;;;5025971;28;20064;-67
2021/11/25 10:25:59;;;;;;;22.70;10.88;;;;;;;;;;5026476;28;20045;-68
2021/11/25 10:28:35;;;;;;;20.23;10.00;;;;;;;;;;5023629;28;20095;-68
2021/11/25 10:31:07;;;;;;;25.73;12.32;;;;;;;;;;5025620;28;20061;-68
2021/11/25 10:33:44;;;;;;;20.55;10.98;;;;;;;;;;5026254;28;20056;-68
2021/11/25 10:39:12;;;;;;;20.27;10.00;;;;;;;;;;5025961;28;20045;-68
2021/11/25 10:41:41;;;;;;;17.63;8.88;;;;;;;;;;5025994;28;20057;-68
2021/11/25 10:44:12;;;;;;;21.42;9.50;;;;;;;;;;5025611;28;20049;-68
2021/11/25 10:46:41;;;;;;;18.65;9.45;;;;;;;;;;5026245;28;20053;-68
2021/11/25 10:49:10;;;;;;;20.95;10.50;;;;;;;;;;5024826;28;20053;-68
2021/11/25 10:51:38;;;;;;;23.23;10.18;;;;;;;;;;5026568;28;20054;-68
2021/11/25 10:54:07;;;;;;;19.60;9.75;;;;;;;;;;5026323;28;20131;-68
2021/11/25 10:56:35;;;;;;;20.02;9.73;;;;;;;;;;5026226;28;20534;-68
2021/11/25 10:59:02;;;;;;;21.50;9.73;;;;;;;;;;5024190;28;20076;-68
2021/11/25 11:01:37;;;;;;;20.77;9.88;;;;;;;;;;5024064;28;20429;-68
2021/11/25 11:04:05;;;;;;;21.13;9.52;;;;;;;;;;5027228;28;20481;-68
2021/11/25 11:06:34;;;;;;;22.85;9.48;;;;;;;;;;5026008;28;20435;-68
2021/11/25 11:09:03;;;;;;;18.63;9.90;;;;;;;;;;5023556;28;20084;-68
2021/11/25 11:11:32;;;;;;;23.00;10.48;;;;;;;;;;5023577;28;20085;-68
2021/11/25 11:14:22;;;;;;;25.77;11.65;;;;;;;;;;5025518;28;20049;-68
2021/11/25 11:16:54;;;;;;;19.77;10.32;;;;;;;;;;5024923;28;20061;-68
2021/11/25 11:19:21;;;;;;;22.67;11.45;;;;;;;;;;5023976;28;20052;-68
2021/11/25 11:21:52;;;;;;;22.35;10.90;;;;;;;;;;5025582;28;20053;-68
2021/11/25 11:24:21;;;;;;;21.70;10.93;;;;;;;;;;5024607;28;20053;-68
2021/11/25 11:26:51;;;;;;;27.77;10.68;;;;;;;;;;5023963;28;20060;-68
2021/11/25 11:29:21;;;;;;;20.17;10.10;;;;;;;;;;5023711;28;20045;-68
2021/11/25 11:31:49;;;;;;;22.45;10.80;;;;;;;;;;5021251;28;20312;-68
2021/11/25 11:34:17;;;;;;;20.55;10.10;;;;;;;;;;5026005;28;20488;-68
2021/11/25 11:36:46;;;;;;;23.83;11.60;;;;;;;;;;5025023;28;20053;-68
2021/11/25 11:39:16;;;;;;;20.25;11.52;;;;;;;;;;5023901;28;20053;-68
2021/11/25 11:41:44;;;;;;;18.80;10.38;;;;;;;;;;5022591;28;20098;-68
2021/11/25 11:44:10;;;;;;;24.05;9.68;;;;;;;;;;5023656;28;20144;-68
2021/11/25 11:46:38;;;;;;;22.17;11.18;;;;;;;;;;5024405;28;20549;-68
2021/11/25 11:49:06;;;;;;;21.77;9.82;;;;;;;;;;5024585;28;20081;-68
2021/11/25 11:51:33;;;;;;;22.40;10.60;;;;;;;;;;5024058;28;20518;-69
2021/11/25 11:54:01;;;;;;;20.10;9.77;;;;;;;;;;5024932;28;20049;-69
2021/11/25 11:56:37;;;;;;;18.60;8.57;;;;;;;;;;5024685;28;20419;-69
2021/11/25 11:59:05;;;;;;;21.60;9.88;;;;;;;;;;5022700;28;20045;-69
2021/11/25 12:01:32;;;;;;;21.35;9.90;;;;;;;;;;5026022;28;20096;-69
2021/11/25 12:04:04;;;;;;;24.83;10.10;;;;;;;;;;5024203;28;20081;-69
2021/11/25 12:06:34;;;;;;;18.40;9.68;;;;;;;;;;5025175;28;20439;-69
2021/11/25 12:09:03;;;;;;;19.55;9.18;;;;;;;;;;5022258;28;20133;-69
2021/11/25 12:11:40;;;;;;;18.55;8.95;;;;;;;;;;5024030;28;20518;-69
2021/11/25 12:14:20;;;;;;;20.88;9.32;;;;;;;;;;5026113;28;20091;-69
2021/11/25 12:16:53;;;;;;;22.80;10.15;;;;;;;;;;5026617;28;20053;-69
2021/11/25 12:19:28;;;;;;;23.08;10.88;;;;;;;;;;5026429;28;20072;-68
2021/11/25 12:21:56;;;;;;;22.63;10.15;;;;;;;;;;5028133;28;20053;-69
2021/11/25 12:24:26;;;;;;;25.17;10.75;;;;;;;;;;5027737;28;20439;-69
2021/11/25 12:27:07;;;;;;;22.13;10.95;;;;;;;;;;5029418;28;20069;-69
2021/11/25 12:29:50;;;;;;;21.88;10.82;;;;;;;;;;5026991;28;20046;-69
2021/11/25 12:32:51;;;;;;;18.48;10.80;;;;;;;;;;5028348;28;20102;-69
2021/11/25 12:35:39;;;;;;;23.52;10.85;;;;;;;;;;5026702;28;20057;-68
2021/11/25 12:38:09;;;;;;;19.67;9.75;;;;;;;;;;5026823;28;20045;-69
2021/11/25 12:40:53;;;;;;;21.70;9.60;;;;;;;;;;5026898;28;20060;-69
2021/11/25 12:43:22;;;;;;;21.55;10.90;;;;;;;;;;5026678;28;20616;-68
2021/11/25 12:45:51;;;;;;;19.27;10.25;;;;;;;;;;5027405;28;20481;-68
2021/11/25 12:48:21;;;;;;;20.38;10.45;;;;;;;;;;5027525;28;20570;-68
2021/11/25 12:50:53;;;;;;;18.80;9.77;;;;;;;;;;5026835;28;20732;-68
2021/11/25 12:53:23;;;;;;;21.95;9.82;;;;;;;;;;5027359;28;20756;-68
2021/11/25 12:55:54;;;;;;;18.48;9.23;;;;;;;;;;5027183;28;20057;-68
2021/11/25 12:58:30;;;;;;;18.55;8.70;;;;;;;;;;5027989;28;20483;-68
2021/11/25 13:00:57;;;;;;;18.67;9.15;;;;;;;;;;5027365;28;20775;-68
2021/11/25 13:03:23;;;;;;;21.45;9.70;;;;;;;;;;5026779;28;20132;-68
2021/11/25 13:05:51;;;;;;;19.85;9.20;;;;;;;;;;5029182;28;20108;-68
2021/11/25 13:08:23;;;;;;;21.08;9.93;;;;;;;;;;5028353;28;20124;-68
2021/11/25 13:10:50;;;;;;;21.45;10.88;;;;;;;;;;5027795;28;20709;-69
2021/11/25 13:13:19;;;;;;;20.35;10.77;;;;;;;;;;5027598;28;20056;-68
2021/11/25 13:15:56;;;;;;;22.70;10.80;;;;;;;;;;5027763;28;20080;-68
2021/11/25 13:18:23;;;;;;;18.95;9.63;;;;;;;;;;5026320;28;20749;-68
2021/11/25 13:20:52;;;;;;;25.48;11.02;;;;;;;;;;5027199;28;20131;-68
2021/11/25 13:23:21;;;;;;;20.30;10.13;;;;;;;;;;5025745;28;20632;-68
2021/11/25 13:25:49;;;;;;;20.90;9.98;;;;;;;;;;5026987;28;20085;-69
2021/11/25 13:28:28;;;;;;;23.15;11.07;;;;;;;;;;5025200;28;20095;-68
2021/11/25 13:31:15;;;;;;;20.83;9.60;;;;;;;;;;5025610;28;20041;-68
2021/11/25 13:34:01;;;;;;;19.83;9.20;;;;;;;;;;5028264;28;20609;-68
2021/11/25 13:36:31;;;;;;;23.25;10.55;;;;;;;;;;5027974;28;20152;-69
2021/11/25 13:39:00;;;;;;;21.15;11.40;;;;;;;;;;5026656;28;20480;-68
2021/11/25 13:41:26;;;;;;;23.17;11.15;;;;;;;;;;5026257;28;20761;-68
2021/11/25 13:43:56;;;;;;;23.58;11.02;;;;;;;;;;5026868;28;20423;-68
2021/11/25 13:46:34;;;;;;;25.63;11.02;;;;;;;;;;5028817;28;20161;-68
2021/11/25 13:49:00;;;;;;;24.65;11.48;;;;;;;;;;5025104;28;20081;-68
2021/11/25 13:51:27;;;;;;;19.42;10.40;;;;;;;;;;5026164;28;20477;-68
2021/11/25 13:54:02;;;;;;;24.45;11.95;;;;;;;;;;5026336;28;20049;-68
2021/11/25 13:56:30;;;;;;;24.70;11.38;;;;;;;;;;5026689;28;20053;-68
2021/11/25 13:58:56;;;;;;;21.17;10.65;;;;;;;;;;5026561;28;20072;-68
2021/11/25 14:01:25;;;;;;;21.95;10.27;;;;;;;;;;5025267;28;20072;-68
2021/11/25 14:03:52;;;;;;;21.60;9.90;;;;;;;;;;5025482;28;20084;-68
2021/11/25 14:06:22;;;;;;;21.67;10.05;;;;;;;;;;5024500;28;20069;-68
2021/11/25 14:08:49;;;;;;;25.05;11.48;;;;;;;;;;5022558;28;20520;-68
2021/11/25 14:11:16;;;;;;;19.63;9.65;;;;;;;;;;5024296;28;20619;-68
2021/11/25 14:13:43;;;;;;;21.92;10.88;;;;;;;;;;5023844;28;20065;-68
2021/11/25 14:16:14;;;;;;;19.30;9.50;;;;;;;;;;5025554;28;20053;-68
2021/11/25 14:18:42;;;;;;;23.08;11.30;;;;;;;;;;5023717;28;20053;-68
2021/11/25 14:21:09;;;;;;;21.13;9.93;;;;;;;;;;5020328;28;21674;-68
2021/11/25 14:23:36;;;;;;;21.95;9.57;;;;;;;;;;5024873;28;20057;-68
2021/11/25 14:26:14;;;;;;;19.30;9.80;;;;;;;;;;5025197;28;20546;-68
2021/11/25 14:31:27;;;;;;;19.05;9.43;;;;;;;;;;5023037;28;20065;-68
2021/11/25 14:33:57;;;;;;;18.75;9.80;;;;;;;;;;5026017;28;20050;-68
2021/11/25 14:36:25;;;;;;;20.58;10.73;;;;;;;;;;5022512;28;20069;-68
2021/11/25 14:38:54;;;;;;;26.27;12.90;;;;;;;;;;5021434;28;20049;-68